createdAt,value
2023-02-24T14:51:40.696Z,100198.46
2023-02-24T14:54:14.339Z,100200.00
2023-02-24T14:56:45.687Z,100196.41
2023-02-24T14:59:27.877Z,100191.17
2023-02-24T15:01:56.221Z,100196.90
2023-02-24T15:04:41.900Z,100189.05
2023-02-24T15:07:39.911Z,100193.85
2023-02-24T15:10:36.219Z,100175.31
2023-02-24T15:13:25.848Z,100180.58
2023-02-24T15:15:58.326Z,100168.58
2023-02-24T15:18:29.804Z,100161.95
2023-02-24T15:21:06.290Z,100171.06
2023-02-24T15:23:39.456Z,100166.62
2023-02-24T15:26:40.059Z,100174.89
2023-02-24T15:29:27.108Z,100177.77
2023-02-24T15:32:03.735Z,100169.07
2023-02-24T15:34:42.590Z,100176.13
2023-02-24T15:37:46.008Z,100173.09
2023-02-24T15:40:22.914Z,100177.96
2023-02-24T15:43:17.198Z,100178.32
2023-02-24T15:45:54.912Z,100175.94
2023-02-24T15:48:31.459Z,100180.45
2023-02-24T15:51:22.562Z,100173.91
2023-02-24T15:54:17.550Z,100161.59
2023-02-24T15:57:12.159Z,100162.76
2023-02-24T15:59:46.626Z,100172.18
2023-02-24T16:02:20.620Z,100174.07
2023-02-24T16:04:55.143Z,100169.56
2023-02-24T16:07:34.366Z,100170.77
2023-02-24T16:10:15.644Z,100170.38
2023-02-24T16:12:58.556Z,100168.74
2023-02-24T16:15:37.982Z,100165.87
2023-02-24T16:18:22.060Z,100162.20
2023-02-24T16:21:07.658Z,100166.23
2023-02-24T16:23:44.256Z,100159.23
2023-02-24T16:26:26.803Z,100149.65
2023-02-24T16:29:01.589Z,100161.02
2023-02-24T16:31:42.087Z,100161.65
2023-02-24T16:34:28.284Z,100160.47
2023-02-24T16:37:05.258Z,100162.11
2023-02-24T16:39:40.810Z,100168.29
2023-02-24T16:42:32.219Z,100165.08
2023-02-24T16:45:03.071Z,100167.47
2023-02-24T16:47:49.022Z,100163.05
2023-02-24T16:50:33.649Z,100159.85
2023-02-24T16:53:13.366Z,100184.57
2023-02-24T16:55:44.879Z,100182.09
2023-02-24T16:58:16.340Z,100175.09
2023-02-24T17:01:03.533Z,100169.27
2023-02-24T17:03:52.359Z,100170.12
2023-02-24T17:06:34.969Z,100164.76
2023-02-24T17:09:20.433Z,100158.22
2023-02-24T17:11:55.343Z,100176.98
2023-02-24T17:14:51.253Z,100155.96
2023-02-24T17:17:33.697Z,100167.47
2023-02-24T17:20:13.776Z,100154.84
2023-02-24T17:22:46.713Z,100154.12
2023-02-24T17:25:30.976Z,100129.77
2023-02-24T17:27:59.823Z,100120.38
2023-02-24T17:30:42.461Z,100111.46
2023-02-24T17:33:15.463Z,100111.46
2023-02-24T17:35:52.932Z,100122.58
2023-02-24T17:38:22.923Z,100102.96
2023-02-24T17:41:07.641Z,100116.30
2023-02-24T17:43:38.205Z,100109.76
2023-02-24T17:46:09.179Z,100107.27
2023-02-24T17:48:42.154Z,100114.89
2023-02-24T17:51:17.336Z,100116.07
2023-02-24T17:53:45.542Z,100124.63
2023-02-24T17:56:20.404Z,100133.43
2023-02-24T17:58:52.044Z,100134.28
2023-02-24T18:01:58.093Z,100137.12
2023-02-24T18:04:32.381Z,100143.30
2023-02-24T18:07:05.700Z,100145.70
2023-02-24T18:09:41.499Z,100156.97
2023-02-24T18:12:22.013Z,100173.16
2023-02-24T18:15:07.448Z,100168.09
2023-02-24T18:17:46.894Z,100162.14
2023-02-24T18:20:29.491Z,100157.53
2023-02-24T18:23:35.247Z,100161.91
2023-02-24T18:29:33.822Z,100148.27
2023-02-24T18:32:10.571Z,100145.79
2023-02-24T18:34:57.454Z,100141.67
2023-02-24T18:37:36.105Z,100133.82
2023-02-24T18:40:04.321Z,100128.85
2023-02-24T18:42:47.647Z,100126.70
2023-02-24T18:45:26.231Z,100123.72
2023-02-24T18:47:54.497Z,100130.26
2023-02-24T18:50:30.438Z,100128.49
2023-02-24T18:53:30.064Z,100125.65
2023-02-24T18:56:15.670Z,100142.13
2023-02-24T18:58:55.784Z,100135.63
2023-02-24T19:01:52.771Z,100138.37
2023-02-24T19:04:24.884Z,100136.21
2023-02-24T19:06:57.681Z,100130.16
2023-02-24T19:09:36.507Z,100135.03
2023-02-24T19:12:41.541Z,100142.39
2023-02-24T19:15:15.414Z,100125.32
2023-02-24T19:17:57.501Z,100119.60
2023-02-24T19:20:45.334Z,100118.03
2023-02-24T19:23:16.448Z,100127.45
2023-02-24T19:25:49.141Z,100129.45
2023-02-24T19:28:31.883Z,100122.19
2023-02-24T19:31:06.955Z,100125.16
2023-02-24T19:33:41.203Z,100123.62
2023-02-24T19:36:09.774Z,100120.52
2023-02-24T19:38:48.305Z,100112.31
2023-02-24T19:41:21.416Z,100111.98
2023-02-24T19:43:54.369Z,100099.27
2023-02-24T19:46:36.297Z,100104.13
2023-02-24T19:49:09.497Z,100107.47
2023-02-24T19:51:46.627Z,100114.83
2023-02-24T19:54:16.069Z,100118.16
2023-02-24T19:57:10.377Z,100118.26
2023-02-24T19:59:40.692Z,100112.67
2023-02-24T20:02:11.485Z,100111.95
2023-02-24T20:04:39.475Z,100103.52
2023-02-24T20:07:31.492Z,100099.82
2023-02-24T20:10:04.158Z,100100.67
2023-02-24T20:12:43.842Z,100097.79
2023-02-24T20:15:16.819Z,100098.64
2023-02-24T20:18:16.761Z,100098.64
2023-02-24T20:20:51.670Z,100091.74
2023-02-24T20:23:34.594Z,100094.62
2023-02-24T20:26:08.326Z,100095.77
2023-02-24T20:28:41.410Z,100096.62
2023-02-24T20:31:17.038Z,100096.98
2023-02-24T20:33:45.286Z,100107.57
2023-02-24T20:36:28.318Z,100097.79
2023-02-24T20:39:07.875Z,100107.99
2023-02-24T20:41:38.795Z,100103.52
2023-02-24T20:44:12.242Z,100105.54
2023-02-24T20:46:53.375Z,100108.38
2023-02-24T20:49:35.506Z,100110.02
2023-02-24T20:52:23.873Z,100113.26
2023-02-24T20:54:58.058Z,100113.59
2023-02-24T20:57:26.369Z,100113.16
2023-02-24T21:00:04.161Z,100108.62
2023-02-24T21:02:45.093Z,100104.95
2023-02-24T21:05:30.735Z,100102.11
2023-02-24T21:08:12.879Z,100092.73
2023-02-24T21:10:58.152Z,100091.41
2023-02-24T21:13:34.175Z,100092.13
2023-02-24T21:16:05.666Z,100096.29
2023-02-24T21:18:40.638Z,100099.62
2023-02-24T21:21:09.288Z,100089.88
2023-02-24T21:23:42.465Z,100088.67
2023-02-24T21:26:18.328Z,100095.57
2023-02-24T21:28:51.087Z,100104.13
2023-02-24T21:31:23.990Z,100108.16
2023-02-24T21:33:56.455Z,100111.03
2023-02-24T21:36:30.020Z,100111.75
2023-02-24T21:39:10.492Z,100114.11
2023-02-24T21:41:43.648Z,100114.83
2023-02-24T21:44:31.070Z,100104.98
2023-02-24T21:47:05.661Z,100112.21
2023-02-24T21:49:38.014Z,100116.98
2023-02-24T21:52:13.422Z,100123.03
2023-02-24T21:54:52.697Z,100122.19
2023-02-24T21:57:32.383Z,100116.89
2023-02-24T22:00:12.334Z,100127.32
2023-02-24T22:03:02.479Z,100129.70
2023-02-24T22:05:51.719Z,100125.16
2023-02-24T22:08:49.986Z,100135.30
2023-02-24T22:11:49.754Z,100130.75
2023-02-24T22:14:43.287Z,100127.09
2023-02-24T22:17:28.225Z,100116.89
2023-02-24T22:20:02.545Z,100136.70
2023-02-24T22:22:42.975Z,100132.19
2023-02-24T22:25:22.760Z,100139.09
2023-02-24T22:28:10.042Z,100135.75
2023-02-24T22:30:53.421Z,100154.52
2023-02-24T22:33:33.328Z,100158.90
2023-02-24T22:36:10.136Z,100177.54
2023-02-24T22:38:43.014Z,100188.33
2023-02-24T22:41:35.588Z,100203.50
2023-02-24T22:44:20.390Z,100191.86
2023-02-24T22:47:01.962Z,100187.80
2023-02-24T22:49:40.812Z,100208.41
2023-02-24T22:52:41.273Z,100209.87
2023-02-24T22:55:19.998Z,100220.24
2023-02-24T22:57:52.747Z,100232.37
2023-02-24T23:00:28.800Z,100231.98
2023-02-24T23:03:05.259Z,100240.91
2023-02-24T23:05:38.245Z,100242.51
2023-02-24T23:08:10.924Z,100252.05
2023-02-24T23:10:54.166Z,100273.86
2023-02-24T23:13:36.452Z,100276.45
2023-02-24T23:19:17.960Z,100275.82
2023-02-24T23:22:06.021Z,100292.73
2023-02-24T23:24:40.080Z,100295.44
2023-02-24T23:27:15.034Z,100299.13
2023-02-24T23:29:48.059Z,100306.69
2023-02-24T23:32:29.202Z,100307.21
2023-02-24T23:35:05.264Z,100302.08
2023-02-24T23:37:46.528Z,100301.72
2023-02-24T23:40:27.116Z,100298.09
2023-02-24T23:43:20.879Z,100292.23
2023-02-24T23:46:14.184Z,100284.59
2023-02-24T23:48:45.166Z,100300.12
2023-02-24T23:51:21.696Z,100302.63
2023-02-24T23:54:02.772Z,100305.64
2023-02-24T23:56:35.389Z,100300.31
2023-02-24T23:59:18.793Z,100294.13
